createdAt,value
2022-10-19T00:04:06.293Z,0.00
2022-10-19T00:09:04.829Z,0.00
2022-10-19T00:14:04.548Z,0.00
2022-10-19T00:19:05.263Z,0.00
2022-10-19T00:24:05.999Z,0.00
2022-10-19T00:29:06.780Z,0.00
2022-10-19T00:34:07.494Z,0.00
2022-10-19T00:39:08.266Z,0.00
2022-10-19T00:44:09.029Z,0.00
2022-10-19T00:49:10.903Z,0.00
2022-10-19T00:54:10.420Z,0.00
2022-10-19T00:59:11.108Z,0.00
2022-10-19T01:04:11.839Z,0.00
2022-10-19T01:09:12.584Z,0.00
2022-10-19T01:14:13.305Z,0.00
2022-10-19T01:19:21.087Z,0.00
2022-10-19T01:24:14.782Z,0.00
2022-10-19T01:29:15.490Z,0.00
2022-10-19T01:34:16.237Z,0.00
2022-10-19T01:39:16.965Z,0.00
2022-10-19T01:44:17.662Z,0.00
2022-10-19T01:49:18.421Z,0.00
2022-10-19T01:54:19.155Z,0.00
2022-10-19T01:59:19.842Z,0.00
2022-10-19T02:04:20.722Z,0.00
2022-10-19T02:09:21.424Z,0.00
2022-10-19T02:14:22.131Z,0.00
2022-10-19T02:24:23.500Z,0.00
2022-10-19T02:29:24.199Z,0.00
2022-10-19T02:34:24.973Z,0.00
2022-10-19T02:39:25.672Z,0.00
2022-10-19T02:44:26.388Z,0.00
2022-10-19T02:49:27.143Z,0.00
2022-10-19T02:54:27.828Z,0.00
2022-10-19T02:59:28.566Z,0.00
2022-10-19T03:04:29.318Z,0.00
2022-10-19T03:09:30.077Z,0.00
2022-10-19T03:14:30.813Z,0.00
2022-10-19T03:19:31.562Z,0.00
2022-10-19T03:24:32.292Z,0.00
2022-10-19T03:29:32.999Z,0.00
2022-10-19T03:34:33.755Z,0.00
2022-10-19T03:39:34.462Z,0.00
2022-10-19T03:44:35.198Z,0.00
2022-10-19T03:49:38.108Z,0.00
2022-10-19T03:54:36.433Z,0.00
2022-10-19T03:59:37.169Z,0.00
2022-10-19T04:04:37.894Z,0.00
2022-10-19T04:09:38.659Z,0.00
2022-10-19T04:14:55.861Z,0.00
2022-10-19T04:19:41.065Z,0.00
2022-10-19T04:24:40.799Z,0.00
2022-10-19T04:29:41.494Z,0.00
2022-10-19T04:34:42.208Z,0.00
2022-10-19T04:39:42.924Z,0.00
2022-10-19T04:44:43.645Z,0.00
2022-10-19T04:49:44.371Z,0.00
2022-10-19T04:54:45.070Z,0.00
2022-10-19T04:59:45.765Z,0.00
2022-10-19T05:04:46.581Z,0.00
2022-10-19T05:09:47.319Z,0.00
2022-10-19T05:14:48.130Z,0.00
2022-10-19T05:19:48.758Z,0.00
2022-10-19T05:24:50.233Z,0.00
2022-10-19T05:29:50.090Z,0.00
2022-10-19T05:34:50.872Z,0.00
2022-10-19T05:39:51.638Z,0.00
2022-10-19T05:44:52.232Z,0.00
2022-10-19T05:49:53.003Z,5.62
2022-10-19T05:54:53.920Z,5.62
2022-10-19T05:59:54.609Z,5.62
2022-10-19T06:04:55.490Z,5.62
2022-10-19T06:09:56.319Z,11.25
2022-10-19T06:14:56.979Z,16.88
2022-10-19T06:19:57.772Z,22.50
2022-10-19T06:24:58.360Z,16.88
2022-10-19T06:29:59.036Z,16.88
2022-10-19T06:34:59.757Z,22.50
2022-10-19T06:40:03.622Z,22.50
2022-10-19T06:45:01.949Z,28.12
2022-10-19T06:50:01.907Z,33.75
2022-10-19T06:55:02.281Z,33.75
2022-10-19T07:00:03.636Z,45.00
2022-10-19T07:05:06.948Z,45.00
2022-10-19T07:10:04.357Z,50.62
2022-10-19T07:15:05.021Z,56.25
2022-10-19T07:20:12.702Z,67.50
2022-10-19T07:25:06.349Z,67.50
2022-10-19T07:30:07.006Z,67.50
2022-10-19T07:35:07.698Z,84.38
2022-10-19T07:40:08.340Z,78.75
2022-10-19T07:45:09.043Z,90.00
2022-10-19T07:50:09.695Z,84.38
2022-10-19T07:55:10.346Z,84.38
2022-10-19T08:00:11.024Z,56.25
2022-10-19T08:05:12.346Z,67.50
2022-10-19T08:10:12.381Z,90.00
2022-10-19T08:15:13.026Z,78.75
2022-10-19T08:20:13.687Z,90.00
2022-10-19T08:25:14.348Z,106.88
2022-10-19T08:30:15.015Z,163.12
2022-10-19T08:35:15.678Z,140.62
2022-10-19T08:40:16.414Z,101.25
2022-10-19T08:45:17.030Z,106.88
2022-10-19T08:50:17.689Z,106.88
2022-10-19T08:55:20.565Z,95.62
2022-10-19T09:00:18.917Z,106.88
2022-10-19T09:05:19.689Z,112.50
2022-10-19T09:10:20.526Z,135.00
2022-10-19T09:15:21.297Z,123.75
2022-10-19T09:20:22.013Z,123.75
2022-10-19T09:25:22.642Z,101.25
2022-10-19T09:30:23.360Z,135.00
2022-10-19T09:35:24.080Z,95.62
2022-10-19T09:40:24.722Z,140.62
2022-10-19T09:45:25.444Z,174.38
2022-10-19T09:50:26.819Z,146.25
2022-10-19T09:55:27.091Z,101.25
2022-10-19T10:00:27.945Z,95.62
2022-10-19T10:05:28.841Z,84.38
2022-10-19T10:10:30.647Z,84.38
2022-10-19T10:15:30.427Z,151.88
2022-10-19T10:20:31.076Z,219.38
2022-10-19T10:25:31.729Z,213.75
2022-10-19T10:30:32.393Z,230.62
2022-10-19T10:35:33.077Z,247.50
2022-10-19T10:40:33.726Z,146.25
2022-10-19T10:45:34.424Z,258.75
2022-10-19T10:50:35.073Z,151.88
2022-10-19T10:55:35.721Z,264.38
2022-10-19T11:00:36.416Z,118.12
2022-10-19T11:05:37.087Z,140.62
2022-10-19T11:10:37.824Z,140.62
2022-10-19T11:15:38.524Z,146.25
2022-10-19T11:20:39.121Z,140.62
2022-10-19T11:25:40.114Z,146.25
2022-10-19T11:30:42.485Z,174.38
2022-10-19T11:35:41.147Z,101.25
2022-10-19T11:40:54.175Z,61.88
2022-10-19T11:45:43.640Z,230.62
2022-10-19T11:50:46.664Z,258.75
2022-10-19T11:55:44.877Z,174.38
2022-10-19T12:00:44.648Z,95.62
2022-10-19T12:05:45.267Z,95.62
2022-10-19T12:10:45.949Z,112.50
2022-10-19T12:15:46.595Z,106.88
2022-10-19T12:20:47.362Z,101.25
2022-10-19T12:25:48.048Z,90.00
2022-10-19T12:30:48.743Z,112.50
2022-10-19T12:35:50.255Z,219.38
2022-10-19T12:40:50.005Z,95.62
2022-10-19T12:45:50.782Z,101.25
2022-10-19T12:50:51.440Z,95.62
2022-10-19T12:55:52.091Z,101.25
2022-10-19T13:00:52.787Z,101.25
2022-10-19T13:05:53.405Z,90.00
2022-10-19T13:10:54.127Z,140.62
2022-10-19T13:15:54.906Z,135.00
2022-10-19T13:21:03.653Z,135.00
2022-10-19T13:25:56.436Z,135.00
2022-10-19T13:31:03.333Z,129.38
2022-10-19T13:35:58.687Z,50.62
2022-10-19T13:40:58.343Z,129.38
2022-10-19T13:45:59.000Z,123.75
2022-10-19T13:50:59.671Z,112.50
2022-10-19T13:56:00.330Z,106.88
2022-10-19T14:01:00.967Z,101.25
2022-10-19T14:06:01.613Z,95.62
2022-10-19T14:11:02.291Z,90.00
2022-10-19T14:16:02.979Z,90.00
2022-10-19T14:21:03.610Z,90.00
2022-10-19T14:26:04.261Z,95.62
2022-10-19T14:31:04.917Z,84.38
2022-10-19T14:36:05.636Z,78.75
2022-10-19T14:41:06.305Z,73.12
2022-10-19T14:46:07.000Z,61.88
2022-10-19T14:51:07.667Z,61.88
2022-10-19T14:56:08.313Z,50.62
2022-10-19T15:01:08.978Z,45.00
2022-10-19T15:06:09.648Z,39.38
2022-10-19T15:11:10.307Z,33.75
2022-10-19T15:16:10.971Z,28.12
2022-10-19T15:21:12.861Z,28.12
2022-10-19T15:26:17.038Z,22.50
2022-10-19T15:31:13.718Z,16.88
2022-10-19T15:36:13.418Z,16.88
2022-10-19T15:41:14.092Z,11.25
2022-10-19T15:46:14.806Z,11.25
2022-10-19T15:51:17.605Z,5.62
2022-10-19T15:56:17.444Z,5.62
2022-10-19T16:01:17.228Z,0.00
2022-10-19T16:06:17.850Z,0.00
2022-10-19T16:11:18.630Z,0.00
2022-10-19T16:16:19.312Z,0.00
2022-10-19T16:21:20.162Z,0.00
2022-10-19T16:26:20.834Z,0.00
2022-10-19T16:31:21.540Z,0.00
2022-10-19T16:36:22.213Z,0.00
2022-10-19T16:41:23.012Z,0.00
2022-10-19T16:46:23.808Z,0.00
2022-10-19T16:51:24.574Z,0.00
2022-10-19T16:56:25.409Z,0.00
2022-10-19T17:01:26.281Z,0.00
2022-10-19T17:06:27.057Z,0.00
2022-10-19T17:11:27.876Z,0.00
2022-10-19T17:16:28.735Z,0.00
2022-10-19T17:21:29.426Z,0.00
2022-10-19T17:26:30.202Z,0.00
2022-10-19T17:31:30.935Z,0.00
2022-10-19T17:36:31.730Z,0.00
2022-10-19T17:41:32.534Z,0.00
2022-10-19T17:46:33.290Z,0.00
2022-10-19T17:51:34.202Z,0.00
2022-10-19T17:56:34.925Z,0.00
2022-10-19T18:01:35.775Z,0.00
2022-10-19T18:06:36.456Z,0.00
2022-10-19T18:11:37.160Z,0.00
2022-10-19T18:16:37.961Z,0.00
2022-10-19T18:21:38.725Z,0.00
2022-10-19T18:26:39.426Z,0.00
2022-10-19T18:31:40.192Z,0.00
2022-10-19T18:36:40.865Z,0.00
2022-10-19T18:41:41.635Z,0.00
2022-10-19T18:46:42.447Z,0.00
2022-10-19T18:51:43.132Z,0.00
2022-10-19T18:56:43.924Z,0.00
2022-10-19T19:01:44.705Z,0.00
2022-10-19T19:06:45.391Z,0.00
2022-10-19T19:11:46.108Z,0.00
2022-10-19T19:16:46.865Z,0.00
2022-10-19T19:21:47.563Z,0.00
2022-10-19T19:26:48.460Z,0.00
2022-10-19T19:31:49.380Z,0.00
2022-10-19T19:36:50.062Z,0.00
2022-10-19T19:41:50.842Z,0.00
2022-10-19T19:46:51.586Z,0.00
2022-10-19T19:51:52.339Z,0.00
2022-10-19T19:56:53.073Z,0.00
2022-10-19T20:01:53.895Z,0.00
2022-10-19T20:06:54.607Z,0.00
2022-10-19T20:11:55.321Z,0.00
2022-10-19T20:16:56.087Z,0.00
2022-10-19T20:21:56.839Z,0.00
2022-10-19T20:26:57.518Z,0.00
2022-10-19T20:31:58.294Z,0.00
2022-10-19T20:36:59.033Z,0.00
2022-10-19T20:41:59.760Z,0.00
2022-10-19T20:47:00.481Z,0.00
2022-10-19T20:52:01.244Z,0.00
2022-10-19T20:57:01.914Z,0.00
2022-10-19T21:02:02.700Z,0.00
2022-10-19T21:07:03.417Z,0.00
2022-10-19T21:12:04.111Z,0.00
2022-10-19T21:17:04.840Z,0.00
2022-10-19T21:22:05.571Z,0.00
2022-10-19T21:27:13.302Z,0.00
2022-10-19T21:32:07.007Z,0.00
2022-10-19T21:37:07.711Z,0.00
2022-10-19T21:42:08.401Z,0.00
2022-10-19T21:47:09.282Z,0.00
2022-10-19T21:52:15.137Z,0.00
2022-10-19T21:57:11.605Z,0.00
2022-10-19T22:02:11.372Z,0.00
2022-10-19T22:07:12.057Z,0.00
2022-10-19T22:17:13.437Z,0.00
2022-10-19T22:22:14.170Z,0.00
2022-10-19T22:27:14.902Z,0.00
2022-10-19T22:32:15.645Z,0.00
2022-10-19T22:37:16.363Z,0.00
2022-10-19T22:42:17.073Z,0.00
2022-10-19T22:47:17.812Z,0.00
2022-10-19T22:52:18.545Z,0.00
2022-10-19T22:57:19.278Z,0.00
2022-10-19T23:02:19.995Z,0.00
2022-10-19T23:07:20.729Z,0.00
2022-10-19T23:12:21.466Z,0.00
2022-10-19T23:17:22.202Z,0.00
2022-10-19T23:22:22.933Z,0.00
2022-10-19T23:27:23.694Z,0.00
2022-10-19T23:32:24.390Z,0.00
2022-10-19T23:37:25.146Z,0.00
2022-10-19T23:42:25.924Z,0.00
2022-10-19T23:47:26.620Z,0.00
2022-10-19T23:52:27.346Z,0.00
2022-10-19T23:57:28.070Z,0.00
